Time;durP1;ratioP1;P1;durP2;ratioP2;P2;SDS_P1;SDS_P2;PMS_P1;PMS_P2;Temp;Humidity;BMP_temperature;BMP_pressure;BME280_temperature;BME280_humidity;BME280_pressure;Samples;Min_cycle;Max_cycle;Signal;HPM_P1;HPM_P2
2022/02/07 00:01:59;;;;;;;4.45;1.30;;;;;;;9.46;50.81;100229.09;4984849;28;20116;-78
2022/02/07 00:04:31;;;;;;;3.90;1.10;;;;;;;9.43;50.75;100232.00;4985003;28;20085;-78
2022/02/07 00:07:22;;;;;;;4.10;1.42;;;;;;;9.40;50.73;100256.59;4982655;28;20512;-78
2022/02/07 00:09:48;;;;;;;3.00;1.08;;;;;;;9.40;50.81;100257.47;4975802;28;20109;-78
2022/02/07 00:12:16;;;;;;;4.50;1.20;;;;;;;9.39;50.63;100280.13;4988792;28;20453;-78
2022/02/07 00:14:43;;;;;;;2.47;1.08;;;;;;;9.37;50.81;100286.66;4982082;28;20062;-78
2022/02/07 00:17:09;;;;;;;4.40;0.90;;;;;;;9.37;50.65;100303.78;4988378;28;20482;-77
2022/02/07 00:19:36;;;;;;;9.07;1.50;;;;;;;9.35;50.79;100296.72;4987206;28;20133;-77
2022/02/07 00:22:04;;;;;;;6.60;1.23;;;;;;;9.35;50.89;100313.84;4989513;28;20058;-77
2022/02/07 00:24:31;;;;;;;3.45;1.10;;;;;;;9.34;50.66;100325.66;4987372;28;20050;-77
2022/02/07 00:26:58;;;;;;;6.93;1.30;;;;;;;9.33;50.61;100323.03;4986525;28;20078;-78
2022/02/07 00:29:24;;;;;;;4.03;0.85;;;;;;;9.32;50.29;100300.50;4987998;28;20244;-77
2022/02/07 00:31:51;;;;;;;2.20;0.70;;;;;;;9.29;50.32;100314.28;5009706;28;20095;-77
2022/02/07 00:34:17;;;;;;;1.48;0.50;;;;;;;9.26;50.28;100327.16;5015465;28;20513;-77
2022/02/07 00:36:44;;;;;;;2.30;0.70;;;;;;;9.24;49.95;100334.50;4994152;28;20080;-78
2022/02/07 00:39:18;;;;;;;1.70;0.85;;;;;;;9.20;50.33;100352.84;4996681;28;20120;-77
2022/02/07 00:41:51;;;;;;;2.95;0.85;;;;;;;9.20;50.49;100369.09;4993074;28;20085;-77
2022/02/07 00:44:20;;;;;;;3.70;0.70;;;;;;;9.20;50.58;100379.94;4990458;28;20844;-77
2022/02/07 00:46:51;;;;;;;3.75;1.05;;;;;;;9.21;50.47;100388.91;4993453;28;20046;-77
2022/02/07 00:49:18;;;;;;;1.70;0.70;;;;;;;9.21;50.41;100389.78;4991354;28;20074;-77
2022/02/07 00:51:47;;;;;;;1.63;0.60;;;;;;;9.21;50.69;100394.34;5008468;28;20077;-78
2022/02/07 00:54:14;;;;;;;2.00;0.98;;;;;;;9.20;50.39;100409.72;5014448;28;20136;-78
2022/02/07 00:56:41;;;;;;;2.53;0.70;;;;;;;9.20;50.54;100414.25;5002828;28;20100;-78
2022/02/07 00:59:09;;;;;;;2.90;0.70;;;;;;;9.21;50.26;100425.00;5009391;28;20054;-78
2022/02/07 01:01:36;;;;;;;1.55;0.73;;;;;;;9.21;50.64;100433.13;5011343;28;20058;-77
2022/02/07 01:04:02;;;;;;;1.45;0.65;;;;;;;9.21;50.65;100433.13;5011335;28;20129;-77
2022/02/07 01:06:29;;;;;;;3.20;0.65;;;;;;;9.22;50.64;100436.69;5012502;28;20132;-78
2022/02/07 01:09:11;;;;;;;2.85;0.88;;;;;;;9.23;50.48;100454.66;5015107;28;20144;-77
2022/02/07 01:14:39;;;;;;;1.83;0.68;;;;;;;9.22;50.47;100461.09;5015530;28;20076;-77
2022/02/07 01:20:00;;;;;;;6.25;1.13;;;;;;;9.21;50.57;100481.00;5010775;28;20328;-77
2022/02/07 01:50:04;;;;;;;4.18;1.33;;;;;;;9.18;50.67;100594.97;5009789;28;20552;-78
2022/02/07 01:55:54;;;;;;;7.20;1.25;;;;;;;9.20;50.54;100617.41;5008278;28;20108;-78
2022/02/07 01:57:48;;;;;;;4.03;1.17;;;;;;;9.19;50.45;100635.50;5003080;28;20058;-78
2022/02/07 02:00:19;;;;;;;4.55;1.40;;;;;;;9.22;50.33;100629.03;5009156;28;20077;-77
2022/02/07 02:02:46;;;;;;;7.43;1.40;;;;;;;9.20;50.25;100649.91;5007868;28;20049;-78
2022/02/07 02:05:14;;;;;;;7.75;1.35;;;;;;;9.20;50.27;100656.19;5009718;28;20151;-78
2022/02/07 02:07:42;;;;;;;4.93;1.23;;;;;;;9.20;50.35;100663.44;5009727;28;20077;-78
2022/02/07 02:10:10;;;;;;;5.30;1.60;;;;;;;9.21;50.59;100673.31;5009375;28;20474;-78
2022/02/07 02:13:05;;;;;;;6.70;1.45;;;;;;;9.24;50.28;100692.06;5011415;28;20042;-78
2022/02/07 02:15:49;;;;;;;5.15;1.38;;;;;;;9.19;50.42;100710.47;4982232;28;20084;-77
2022/02/07 02:37:31;;;;;;;4.32;1.50;;;;;;;9.09;50.59;100784.16;4956569;28;20133;-77
2022/02/07 02:45:36;;;;;;;2.95;1.17;;;;;;;9.06;50.61;100813.25;5007958;28;20056;-77
2022/02/07 02:48:07;;;;;;;2.92;1.05;;;;;;;9.06;50.76;100824.09;5002566;28;20072;-77
2022/02/07 02:50:35;;;;;;;3.40;1.10;;;;;;;9.03;50.44;100830.59;5008493;28;20100;-77
2022/02/07 02:53:08;;;;;;;3.53;0.90;;;;;;;9.02;50.62;100831.56;5010188;28;20049;-79
2022/02/07 02:55:38;;;;;;;5.90;1.27;;;;;;;9.00;50.47;100851.56;4996065;28;20129;-77
2022/02/07 02:58:06;;;;;;;3.13;0.80;;;;;;;8.99;50.35;100864.22;4980292;28;20054;-78
2022/02/07 03:00:36;;;;;;;3.75;0.85;;;;;;;8.98;50.15;100867.88;5000794;28;20125;-77
2022/02/07 03:03:03;;;;;;;3.17;0.80;;;;;;;8.96;50.52;100877.09;5013349;28;20136;-77
2022/02/07 03:05:30;;;;;;;3.28;0.75;;;;;;;8.95;50.45;100897.88;5006464;28;20081;-77
2022/02/07 03:07:57;;;;;;;1.52;0.80;;;;;;;8.93;50.36;100888.97;5009340;28;20107;-77
2022/02/07 03:10:44;;;;;;;1.25;0.70;;;;;;;8.93;50.47;100901.63;5008017;28;20045;-77
2022/02/07 03:13:17;;;;;;;2.10;0.70;;;;;;;8.91;50.32;100908.97;5013085;28;20057;-78
2022/02/07 03:18:30;;;;;;;2.45;1.13;;;;;;;8.88;50.30;100928.13;5009190;28;20050;-77
2022/02/07 03:20:58;;;;;;;3.47;1.10;;;;;;;8.88;50.55;100929.00;5008473;28;20062;-77
2022/02/07 03:23:25;;;;;;;4.53;0.90;;;;;;;8.87;50.44;100929.06;5008347;28;20053;-77
2022/02/07 03:25:52;;;;;;;5.45;0.90;;;;;;;8.86;50.58;100938.16;5006276;28;20128;-77
2022/02/07 03:28:20;;;;;;;4.43;1.08;;;;;;;8.86;50.92;100955.28;5008250;28;20046;-78
2022/02/07 03:30:49;;;;;;;4.65;1.10;;;;;;;8.85;50.55;100947.22;5007710;28;20050;-78
2022/02/07 03:33:16;;;;;;;2.55;0.82;;;;;;;8.86;50.82;100962.53;5007388;28;20058;-77
2022/02/07 03:35:43;;;;;;;2.63;0.95;;;;;;;8.85;50.70;100955.34;4993980;28;20093;-77
2022/02/07 03:38:10;;;;;;;3.38;1.00;;;;;;;8.83;50.57;100966.25;4989733;28;20141;-77
2022/02/07 03:40:39;;;;;;;3.70;1.00;;;;;;;8.84;50.66;100973.44;4987626;28;20054;-77
2022/02/07 03:43:05;;;;;;;3.17;1.10;;;;;;;8.85;50.82;100985.13;4991771;28;20092;-77
2022/02/07 03:45:34;;;;;;;3.55;1.00;;;;;;;8.85;50.50;100990.56;4980787;28;20051;-78
2022/02/07 03:48:00;;;;;;;2.28;0.77;;;;;;;8.86;50.85;101000.41;4989079;28;20042;-77
2022/02/07 03:50:32;;;;;;;3.58;1.17;;;;;;;8.85;50.77;101007.66;4981213;28;20121;-77
2022/02/07 03:52:59;;;;;;;4.75;1.52;;;;;;;8.85;50.65;101015.78;4987980;28;20077;-77
2022/02/07 03:55:25;;;;;;;5.13;1.10;;;;;;;8.87;50.64;101023.84;4986343;28;20058;-77
2022/02/07 03:57:52;;;;;;;5.28;1.10;;;;;;;8.87;50.45;101031.97;4989240;28;20133;-77
2022/02/07 04:00:18;;;;;;;3.08;1.33;;;;;;;8.88;50.37;101033.72;4994919;28;20056;-78
2022/02/07 04:02:49;;;;;;;4.65;0.98;;;;;;;8.89;50.42;101038.16;5007344;28;20477;-77
2022/02/07 04:07:43;;;;;;;5.55;1.00;;;;;;;8.90;50.42;101059.72;5024614;28;20125;-77
2022/02/07 04:10:10;;;;;;;4.97;1.15;;;;;;;8.88;50.72;101066.19;5010313;28;20145;-78
2022/02/07 04:12:39;;;;;;;4.00;1.00;;;;;;;8.87;50.64;101068.03;5012998;28;20154;-77
2022/02/07 04:15:09;;;;;;;4.10;1.00;;;;;;;8.88;50.49;101071.59;5005875;28;20049;-78
2022/02/07 04:17:42;;;;;;;1.83;0.90;;;;;;;8.88;50.36;101086.03;5010546;28;20124;-77
2022/02/07 04:20:09;;;;;;;4.25;1.10;;;;;;;8.90;50.36;101085.91;4993528;28;20516;-78
2022/02/07 04:22:35;;;;;;;4.72;1.40;;;;;;;8.89;50.53;101093.19;5015430;28;20082;-77
2022/02/07 04:25:03;;;;;;;4.97;1.20;;;;;;;8.90;50.66;101099.44;5010134;28;20088;-77
2022/02/07 04:27:29;;;;;;;3.83;1.10;;;;;;;8.90;50.54;101108.44;5012751;28;20050;-78
2022/02/07 04:29:56;;;;;;;4.13;1.38;;;;;;;8.90;50.56;101111.16;5011031;28;20140;-78
2022/02/07 04:32:22;;;;;;;5.28;1.30;;;;;;;8.91;50.21;101126.44;5013619;28;20529;-78
2022/02/07 04:34:49;;;;;;;7.35;1.63;;;;;;;8.90;50.40;101118.41;5001572;28;20062;-78
2022/02/07 04:37:17;;;;;;;2.75;1.08;;;;;;;8.91;50.43;101128.28;5012028;28;20501;-78
2022/02/07 04:39:43;;;;;;;3.28;1.10;;;;;;;8.89;50.56;101128.38;4988930;28;20077;-78
2022/02/07 04:42:12;;;;;;;3.83;1.20;;;;;;;8.89;50.27;101143.75;5006585;28;20112;-78
2022/02/07 04:45:32;;;;;;;5.88;1.42;;;;;;;8.87;50.41;101138.44;5010949;28;20551;-78
2022/02/07 04:50:25;;;;;;;5.80;1.30;;;;;;;8.86;50.50;101158.34;5010303;28;20082;-78
2022/02/07 04:55:46;;;;;;;4.50;1.30;;;;;;;8.85;50.21;101175.53;5009389;28;20140;-77
2022/02/07 05:00:50;;;;;;;6.68;1.50;;;;;;;8.85;50.17;101182.78;5008161;28;20092;-78
2022/02/07 05:03:22;;;;;;;6.38;1.58;;;;;;;8.84;50.55;101192.72;5014043;28;20136;-78
2022/02/07 05:13:48;;;;;;;6.13;1.55;;;;;;;8.82;50.60;101204.59;5010299;28;20058;-78
2022/02/07 05:16:24;;;;;;;5.00;1.40;;;;;;;8.85;50.38;101226.09;5005736;28;20076;-78
2022/02/07 05:18:53;;;;;;;4.10;1.50;;;;;;;8.84;50.55;101221.63;5013932;28;20088;-78
2022/02/07 05:21:20;;;;;;;6.22;1.50;;;;;;;8.87;50.21;101225.06;4985214;28;20316;-78
2022/02/07 05:23:47;;;;;;;5.65;1.50;;;;;;;8.86;50.42;101231.44;5015423;28;20560;-78
2022/02/07 05:26:14;;;;;;;4.50;1.10;;;;;;;8.87;50.23;101237.72;4969134;28;20535;-78
2022/02/07 05:28:41;;;;;;;5.10;1.75;;;;;;;8.87;50.08;101244.03;5010770;28;20128;-78
2022/02/07 05:31:08;;;;;;;6.50;1.60;;;;;;;8.88;50.26;101250.31;5008451;28;20377;-78
2022/02/07 05:33:39;;;;;;;5.88;1.30;;;;;;;8.89;50.38;101257.47;5010227;28;20625;-77
2022/02/07 05:36:09;;;;;;;3.97;1.13;;;;;;;8.91;50.41;101263.66;5008168;28;20062;-78
2022/02/07 05:38:43;;;;;;;5.95;1.45;;;;;;;8.93;50.34;101270.75;5009503;28;20048;-77
2022/02/07 05:41:11;;;;;;;6.38;1.45;;;;;;;8.90;50.41;101267.31;5009032;28;20068;-76
2022/02/07 05:43:39;;;;;;;5.72;1.83;;;;;;;8.91;50.34;101279.91;5011165;28;20093;-76
2022/02/07 05:46:06;;;;;;;6.90;1.40;;;;;;;8.92;50.34;101289.78;5010202;28;20288;-77
2022/02/07 05:48:33;;;;;;;4.97;1.40;;;;;;;8.92;50.40;101282.53;5018855;28;20045;-76
2022/02/07 05:50:59;;;;;;;6.35;1.60;;;;;;;8.94;50.59;101296.88;4991682;28;20192;-76
2022/02/07 05:53:26;;;;;;;5.75;2.00;;;;;;;8.94;50.25;101304.13;5008165;28;20061;-77
2022/02/07 05:55:53;;;;;;;5.10;1.60;;;;;;;8.96;50.32;101310.34;5007269;28;20135;-76
2022/02/07 05:58:19;;;;;;;5.82;1.90;;;;;;;8.94;50.36;101309.56;5010800;28;20050;-77
2022/02/07 06:00:46;;;;;;;6.28;1.67;;;;;;;8.98;50.30;101311.13;5008925;28;20365;-77
2022/02/07 06:03:13;;;;;;;6.43;1.70;;;;;;;8.97;50.23;101325.66;5021228;28;20516;-76
2022/02/07 06:05:39;;;;;;;5.38;1.77;;;;;;;8.97;50.28;101331.06;4994174;28;20129;-76
2022/02/07 06:08:06;;;;;;;6.93;1.40;;;;;;;8.98;50.31;101349.03;4985861;28;20133;-76
2022/02/07 06:10:33;;;;;;;6.18;1.70;;;;;;;9.00;50.36;101355.25;4988874;28;20056;-76
2022/02/07 06:13:00;;;;;;;6.53;2.22;;;;;;;9.01;50.11;101354.31;5011263;28;20038;-76
2022/02/07 06:15:27;;;;;;;5.28;1.50;;;;;;;9.00;50.17;101355.25;5000510;28;20164;-77
2022/02/07 06:17:57;;;;;;;6.18;1.48;;;;;;;9.02;50.32;101356.06;5004806;28;20145;-77
2022/02/07 06:20:24;;;;;;;6.75;1.40;;;;;;;9.03;50.40;101358.69;5008930;28;20112;-77
2022/02/07 06:22:51;;;;;;;7.13;1.50;;;;;;;9.04;50.09;101363.16;5005440;28;20085;-77
2022/02/07 06:25:18;;;;;;;5.85;1.70;;;;;;;9.06;50.06;101376.59;5000800;28;20169;-78
2022/02/07 06:27:46;;;;;;;7.05;1.80;;;;;;;9.07;50.26;101387.34;4990399;28;20046;-77
2022/02/07 06:30:13;;;;;;;7.05;1.65;;;;;;;9.08;50.51;101396.34;4997682;28;20065;-77
2022/02/07 06:32:40;;;;;;;6.95;1.80;;;;;;;9.10;50.16;101389.91;5007575;28;20077;-77
2022/02/07 06:35:08;;;;;;;6.93;1.75;;;;;;;9.11;50.46;101399.81;5006220;28;20089;-78
2022/02/07 06:37:35;;;;;;;6.68;1.98;;;;;;;9.12;50.48;101414.22;5008691;28;20045;-78
2022/02/07 06:40:03;;;;;;;5.22;1.63;;;;;;;9.11;50.80;101416.06;5003539;28;20084;-77
2022/02/07 06:42:30;;;;;;;6.00;2.15;;;;;;;9.11;50.53;101421.47;5005732;28;20084;-77
2022/02/07 06:44:59;;;;;;;5.13;1.40;;;;;;;9.14;50.28;101429.41;4977522;28;20430;-77
2022/02/07 06:47:28;;;;;;;6.43;1.63;;;;;;;9.18;50.33;101442.81;5009269;28;20041;-77
2022/02/07 06:49:54;;;;;;;5.93;1.40;;;;;;;9.17;50.34;101447.34;5012664;28;20066;-77
2022/02/07 06:52:21;;;;;;;5.88;1.58;;;;;;;9.19;50.19;101455.41;5010387;28;20129;-76
2022/02/07 06:54:48;;;;;;;6.38;1.80;;;;;;;9.20;50.18;101457.16;5002085;28;20085;-78
2022/02/07 06:57:16;;;;;;;6.82;1.67;;;;;;;9.22;50.33;101471.50;5006142;28;20155;-78
2022/02/07 06:59:45;;;;;;;5.03;1.50;;;;;;;9.22;50.32;101476.94;5004893;28;20401;-78
2022/02/07 07:02:12;;;;;;;3.83;1.80;;;;;;;9.22;50.27;101480.53;5005718;28;20093;-79
2022/02/07 07:04:38;;;;;;;7.38;1.58;;;;;;;9.22;50.25;101494.06;5007149;28;20077;-78
2022/02/07 07:07:05;;;;;;;8.68;1.65;;;;;;;9.23;49.97;101505.75;5006640;28;20049;-79
2022/02/07 07:09:33;;;;;;;6.57;1.50;;;;;;;9.24;50.43;101515.63;5005819;28;20135;-78
2022/02/07 07:12:05;;;;;;;6.47;1.90;;;;;;;9.26;50.18;101527.28;5005909;28;20472;-78
2022/02/07 07:14:48;;;;;;;5.20;1.80;;;;;;;9.24;50.36;101521.94;5001637;28;20261;-78
2022/02/07 07:17:14;;;;;;;5.68;1.60;;;;;;;9.26;50.35;101525.47;5006253;28;20512;-78
2022/02/07 07:19:42;;;;;;;4.82;1.45;;;;;;;9.27;50.43;101537.16;5006832;28;20061;-78
2022/02/07 07:22:09;;;;;;;5.78;1.58;;;;;;;9.29;50.35;101540.69;5007767;28;20140;-79
2022/02/07 07:24:36;;;;;;;8.70;1.52;;;;;;;9.29;50.35;101549.69;5022113;28;20502;-78
2022/02/07 07:27:05;;;;;;;6.30;1.85;;;;;;;9.31;50.54;101560.44;5008222;28;20177;-79
2022/02/07 07:29:35;;;;;;;7.97;1.98;;;;;;;9.31;50.33;101566.72;5007410;28;20061;-79
2022/02/07 07:32:05;;;;;;;5.90;1.90;;;;;;;9.32;50.69;101579.34;5007491;28;20089;-80
2022/02/07 07:34:32;;;;;;;6.18;1.70;;;;;;;9.34;50.23;101581.97;5006967;28;20061;-81
2022/02/07 07:36:59;;;;;;;8.05;1.63;;;;;;;9.33;50.59;101575.66;5008999;28;20544;-81
2022/02/07 07:39:26;;;;;;;5.28;1.50;;;;;;;9.34;50.69;101584.69;5007629;28;20077;-81
2022/02/07 07:41:53;;;;;;;8.20;1.70;;;;;;;9.35;50.47;101590.03;5007904;28;20058;-81
2022/02/07 07:44:24;;;;;;;4.85;1.63;;;;;;;9.34;50.63;101588.28;5005297;28;20076;-81
2022/02/07 07:46:56;;;;;;;7.30;1.52;;;;;;;9.35;50.69;101600.88;5007233;28;20046;-80
2022/02/07 07:49:33;;;;;;;4.53;1.35;;;;;;;9.36;50.68;101612.59;5007722;28;20525;-79
2022/02/07 07:52:07;;;;;;;7.32;1.98;;;;;;;9.37;50.93;101626.06;4982162;28;20487;-79
2022/02/07 07:55:10;;;;;;;8.18;1.90;;;;;;;9.39;50.88;101634.97;4989620;28;20077;-80
2022/02/07 08:03:08;;;;;;;4.93;1.60;;;;;;;9.43;50.90;101649.28;4990092;28;20074;-80
2022/02/07 08:06:05;;;;;;;5.95;1.50;;;;;;;9.47;51.04;101651.72;4987621;28;20062;-80
2022/02/07 08:08:40;;;;;;;8.88;1.95;;;;;;;9.47;50.97;101650.88;4987040;28;20046;-79
2022/02/07 08:11:10;;;;;;;6.75;1.77;;;;;;;9.48;51.19;101642.66;5003749;28;20046;-79
2022/02/07 08:13:40;;;;;;;6.43;1.65;;;;;;;9.51;51.16;101655.19;5005652;28;20432;-79
2022/02/07 08:16:07;;;;;;;9.10;1.85;;;;;;;9.53;50.92;101656.00;5005904;28;20615;-78
2022/02/07 08:18:34;;;;;;;6.35;1.60;;;;;;;9.53;50.69;101650.56;5009424;28;20042;-79
2022/02/07 08:21:00;;;;;;;6.95;1.63;;;;;;;9.54;50.85;101663.19;5005284;28;20050;-79
2022/02/07 08:23:27;;;;;;;7.38;2.03;;;;;;;9.55;50.69;101671.22;5005468;28;20054;-79
2022/02/07 08:25:55;;;;;;;6.15;1.60;;;;;;;9.56;50.90;101693.78;5008486;28;20520;-80
2022/02/07 08:28:41;;;;;;;7.28;1.83;;;;;;;9.54;50.99;101702.00;5005154;28;20489;-80
2022/02/07 08:31:08;;;;;;;6.15;1.77;;;;;;;9.54;51.07;101723.69;5006725;28;20123;-79
2022/02/07 08:33:35;;;;;;;6.50;1.70;;;;;;;9.55;51.26;101732.72;5015641;28;20075;-79
2022/02/07 08:36:05;;;;;;;5.70;1.52;;;;;;;9.55;50.71;101746.25;5009636;28;20125;-80
2022/02/07 08:38:33;;;;;;;6.15;1.48;;;;;;;9.57;50.75;101751.59;5007671;28;20046;-79
2022/02/07 08:41:00;;;;;;;4.70;1.70;;;;;;;9.58;51.07;101750.63;5006539;28;20096;-80
2022/02/07 08:43:26;;;;;;;8.40;2.08;;;;;;;9.58;50.79;101756.94;5011419;28;20050;-81
2022/02/07 08:45:53;;;;;;;6.90;1.67;;;;;;;9.59;51.07;101757.81;5008752;28;20045;-80
2022/02/07 08:48:20;;;;;;;3.17;1.25;;;;;;;9.58;51.26;101762.38;5017362;28;20037;-79
2022/02/07 08:50:51;;;;;;;7.53;2.00;;;;;;;9.60;51.07;101765.00;5005239;28;20524;-80
2022/02/07 08:53:20;;;;;;;6.72;1.60;;;;;;;9.61;50.76;101769.47;5005264;28;20085;-79
2022/02/07 08:55:51;;;;;;;7.28;1.95;;;;;;;9.61;51.09;101778.50;5005889;28;20066;-79
2022/02/07 08:58:22;;;;;;;6.50;1.70;;;;;;;9.63;50.91;101783.84;5022769;28;20046;-79
2022/02/07 09:01:05;;;;;;;8.02;1.60;;;;;;;9.63;50.88;101787.44;5007894;28;20053;-80
2022/02/07 09:06:57;;;;;;;6.85;1.75;;;;;;;9.65;50.92;101803.59;5008265;28;20509;-80
2022/02/07 09:11:25;;;;;;;5.72;1.60;;;;;;;9.67;51.06;101797.16;5007460;28;20522;-80
2022/02/07 09:13:54;;;;;;;8.25;1.70;;;;;;;9.69;51.00;101797.97;5010051;28;20144;-80
2022/02/07 09:16:29;;;;;;;7.82;1.83;;;;;;;9.70;50.99;101801.56;5005849;28;20049;-79
2022/02/07 09:18:57;;;;;;;7.53;2.08;;;;;;;9.73;51.18;101804.13;5009849;28;20037;-80
2022/02/07 09:21:28;;;;;;;6.60;1.73;;;;;;;9.73;51.13;101807.72;4991079;28;20407;-80
2022/02/07 09:23:56;;;;;;;6.82;1.67;;;;;;;9.75;51.25;101807.66;4991051;28;20077;-81
2022/02/07 09:26:23;;;;;;;5.35;1.88;;;;;;;9.75;51.30;101819.38;4988894;28;20062;-79
2022/02/07 09:28:50;;;;;;;6.03;1.90;;;;;;;9.77;51.07;101822.03;4982564;28;20050;-80
2022/02/07 09:31:18;;;;;;;6.30;2.00;;;;;;;9.78;51.25;101816.53;5006350;28;20096;-79
2022/02/07 09:33:45;;;;;;;5.35;1.90;;;;;;;9.81;51.12;101818.19;5011019;28;20089;-78
2022/02/07 09:36:14;;;;;;;6.13;1.67;;;;;;;9.84;51.17;101816.22;5006840;28;20057;-80
2022/02/07 09:38:42;;;;;;;8.50;1.92;;;;;;;9.85;51.21;101815.28;5010148;28;20255;-80
2022/02/07 09:41:09;;;;;;;6.45;1.80;;;;;;;9.87;51.22;101831.47;5009351;28;20077;-81
2022/02/07 09:43:44;;;;;;;5.15;1.73;;;;;;;9.90;51.52;101834.03;5012719;28;20124;-80
2022/02/07 09:46:34;;;;;;;8.35;2.53;;;;;;;9.92;51.01;101853.81;5009565;28;20073;-79
2022/02/07 09:49:01;;;;;;;6.88;1.83;;;;;;;9.95;51.69;101845.56;4999117;28;20042;-80
2022/02/07 09:51:30;;;;;;;9.02;1.75;;;;;;;9.99;51.44;101854.41;5006755;28;20448;-80
2022/02/07 09:53:58;;;;;;;7.82;1.85;;;;;;;10.04;51.51;101865.94;5009006;28;20089;-79
2022/02/07 09:56:26;;;;;;;7.38;1.92;;;;;;;10.06;51.49;101874.84;5008281;28;20062;-80
2022/02/07 09:58:54;;;;;;;6.13;1.50;;;;;;;10.09;51.55;101886.44;5013609;28;20324;-79
2022/02/07 10:01:32;;;;;;;8.57;1.80;;;;;;;10.14;51.62;101889.81;5009176;28;20046;-79
2022/02/07 10:04:09;;;;;;;6.30;2.17;;;;;;;10.17;51.39;101892.41;5001691;28;20050;-80
2022/02/07 10:07:00;;;;;;;9.70;1.80;;;;;;;10.21;51.29;101915.72;5008250;28;20116;-79
2022/02/07 10:09:41;;;;;;;9.07;1.80;;;;;;;10.24;51.24;101926.44;5008825;28;20093;-80
2022/02/07 10:17:40;;;;;;;6.28;1.70;;;;;;;10.40;51.23;101948.28;5010249;28;20107;-80
2022/02/07 10:40:19;;;;;;;6.70;1.80;;;;;;;10.90;51.07;101988.38;5007916;28;20110;-80
2022/02/07 10:45:49;;;;;;;6.53;1.70;;;;;;;11.00;50.42;101995.97;4992159;28;20418;-79
2022/02/07 10:48:41;;;;;;;7.22;1.80;;;;;;;11.05;50.54;101996.63;4990448;28;20062;-78
2022/02/07 10:51:19;;;;;;;4.63;1.63;;;;;;;11.07;50.68;102001.97;4997262;28;20058;-79
2022/02/07 10:53:49;;;;;;;5.88;1.58;;;;;;;11.11;50.67;101994.56;5009353;28;20058;-79
2022/02/07 10:56:20;;;;;;;7.68;2.00;;;;;;;11.14;50.38;102010.69;5007980;28;20133;-79
2022/02/07 10:58:51;;;;;;;5.55;2.13;;;;;;;11.16;50.61;102012.38;4997926;28;20046;-79
2022/02/07 11:01:26;;;;;;;6.88;1.83;;;;;;;11.17;50.50;102019.59;5008059;28;20049;-79
2022/02/07 11:03:57;;;;;;;7.43;2.10;;;;;;;11.19;50.54;102025.84;5009266;28;20049;-79
2022/02/07 11:06:37;;;;;;;;;;;;;;;11.00;50.88;102042.19;5007250;28;20042;-79
2022/02/07 11:09:19;;;;;;;8.18;2.13;;;;;;;11.18;50.50;102028.63;5015015;28;20063;-79
2022/02/07 11:22:41;;;;;;;8.32;2.33;;;;;;;11.26;50.40;102045.44;5008690;28;20265;-79
2022/02/07 11:27:55;;;;;;;7.90;2.40;;;;;;;11.25;49.97;102063.56;5009431;28;20053;-79
2022/02/07 11:30:34;;;;;;;7.55;1.90;;;;;;;11.28;49.82;102060.69;5008612;28;20115;-79
2022/02/07 11:33:02;;;;;;;9.23;2.22;;;;;;;11.25;50.07;102060.84;5010943;28;20149;-79
2022/02/07 11:35:32;;;;;;;6.47;1.63;;;;;;;11.26;50.12;102059.91;5007646;28;20061;-79
2022/02/07 11:38:02;;;;;;;5.38;1.77;;;;;;;11.27;50.01;102058.06;5011064;28;20046;-79
2022/02/07 11:40:28;;;;;;;12.63;2.60;;;;;;;11.26;50.28;102059.03;5004832;28;20064;-81
2022/02/07 11:43:18;;;;;;;6.00;1.65;;;;;;;11.27;49.75;102060.78;5010142;28;20053;-80
2022/02/07 11:45:59;;;;;;;6.80;2.00;;;;;;;11.28;49.97;102068.00;5007778;28;20053;-79
2022/02/07 11:48:25;;;;;;;8.90;1.83;;;;;;;11.27;50.36;102060.78;5001847;28;20070;-79
2022/02/07 11:50:55;;;;;;;10.43;1.98;;;;;;;11.32;50.30;102061.41;5006663;28;20120;-79
2022/02/07 11:53:27;;;;;;;6.68;2.40;;;;;;;11.32;50.19;102062.31;5007968;28;20054;-79
2022/02/07 11:56:07;;;;;;;6.25;1.95;;;;;;;11.39;49.90;102066.47;5001185;28;20046;-78
2022/02/07 11:58:46;;;;;;;4.75;1.75;;;;;;;11.40;49.66;102060.06;5008089;28;20126;-79
2022/02/07 12:01:14;;;;;;;7.80;2.10;;;;;;;11.41;50.11;102060.97;5000983;28;20128;-79
2022/02/07 12:03:41;;;;;;;10.27;2.20;;;;;;;11.45;50.21;102065.25;5008211;28;20156;-79
2022/02/07 12:06:11;;;;;;;7.10;1.70;;;;;;;11.49;50.51;102071.44;5007031;28;20065;-80
2022/02/07 12:08:38;;;;;;;6.97;1.92;;;;;;;11.53;50.20;102068.47;5007370;28;20088;-79
2022/02/07 12:11:11;;;;;;;6.20;2.05;;;;;;;11.60;49.95;102067.22;5008279;28;20265;-78
2022/02/07 12:13:41;;;;;;;8.85;1.90;;;;;;;11.61;50.21;102063.50;5006391;28;20535;-79
2022/02/07 12:16:21;;;;;;;6.00;1.88;;;;;;;11.70;49.72;102065.75;5005180;28;20073;-79
2022/02/07 12:18:57;;;;;;;5.03;1.63;;;;;;;11.75;49.67;102071.00;5008830;28;20081;-79
2022/02/07 12:21:29;;;;;;;7.20;2.30;;;;;;;11.77;50.25;102069.09;5008318;28;20084;-78
2022/02/07 12:24:00;;;;;;;8.05;2.20;;;;;;;11.82;49.92;102073.31;4996212;28;20061;-78
2022/02/07 12:26:35;;;;;;;7.03;2.17;;;;;;;11.87;49.99;102075.78;5006303;28;20136;-78
2022/02/07 12:29:08;;;;;;;5.85;1.80;;;;;;;11.92;49.64;102070.13;5006986;28;20077;-79
2022/02/07 12:31:40;;;;;;;7.50;1.98;;;;;;;11.93;49.51;102083.66;5012761;28;20077;-79
2022/02/07 12:34:12;;;;;;;6.18;1.83;;;;;;;11.99;49.40;102080.59;5021320;28;20085;-79
2022/02/07 12:36:40;;;;;;;7.13;1.50;;;;;;;11.99;49.34;102077.00;5010700;28;20060;-79
2022/02/07 12:39:10;;;;;;;6.57;1.92;;;;;;;12.02;48.80;102087.72;5012210;28;20084;-79
2022/02/07 12:41:37;;;;;;;5.82;1.60;;;;;;;12.02;48.97;102085.88;5009687;28;20088;-79
2022/02/07 12:44:07;;;;;;;6.32;1.65;;;;;;;12.03;49.03;102093.06;5011930;28;20132;-79
2022/02/07 12:46:44;;;;;;;6.88;1.80;;;;;;;12.05;48.72;102087.53;5009038;28;20046;-78
2022/02/07 12:49:13;;;;;;;7.38;2.00;;;;;;;12.02;48.97;102085.88;5004804;28;20397;-78
2022/02/07 12:51:46;;;;;;;7.53;2.00;;;;;;;12.04;48.45;102083.94;5011235;28;20046;-79
2022/02/07 12:54:17;;;;;;;5.90;2.17;;;;;;;12.04;48.88;102100.28;5009753;28;20054;-79
2022/02/07 12:56:44;;;;;;;7.30;2.35;;;;;;;12.06;48.93;102097.47;5011645;28;20054;-79
2022/02/07 12:59:11;;;;;;;8.82;2.20;;;;;;;12.08;48.73;102095.56;5009396;28;20275;-80
2022/02/07 13:01:42;;;;;;;5.70;2.05;;;;;;;12.13;48.82;102099.78;5010487;28;20509;-79
2022/02/07 13:04:18;;;;;;;6.55;2.30;;;;;;;12.13;48.63;102102.50;5002706;28;20071;-78
2022/02/07 13:06:48;;;;;;;6.75;2.55;;;;;;;12.15;48.74;102106.03;5007612;28;20053;-78
2022/02/07 13:09:24;;;;;;;6.88;1.92;;;;;;;12.18;48.75;102114.06;5003135;28;20050;-79
2022/02/07 13:12:01;;;;;;;4.40;1.55;;;;;;;12.18;49.05;102108.59;5011303;28;20053;-78
2022/02/07 13:14:30;;;;;;;5.35;1.80;;;;;;;12.25;48.69;102106.44;5007279;28;20062;-78
2022/02/07 13:16:57;;;;;;;6.97;1.98;;;;;;;12.29;48.33;102123.47;5009629;28;20058;-78
2022/02/07 13:19:27;;;;;;;5.38;1.75;;;;;;;12.33;48.19;102125.06;5009797;28;20041;-78
2022/02/07 13:21:54;;;;;;;6.00;1.60;;;;;;;12.34;48.03;102129.56;5011298;28;20163;-78
2022/02/07 13:24:31;;;;;;;6.53;1.60;;;;;;;12.37;47.55;102124.81;5008267;28;20552;-78
2022/02/07 13:26:59;;;;;;;6.30;1.80;;;;;;;12.37;47.72;102134.81;5008988;28;20152;-80
2022/02/07 13:29:29;;;;;;;6.80;1.75;;;;;;;12.39;47.39;102125.63;5008542;28;20097;-78
2022/02/07 13:31:59;;;;;;;3.80;1.55;;;;;;;12.41;47.50;102129.16;5011228;28;20046;-79
2022/02/07 13:34:31;;;;;;;5.97;1.60;;;;;;;12.43;47.21;102140.84;5008831;28;20054;-79
2022/02/07 13:37:16;;;;;;;5.78;1.60;;;;;;;12.49;46.71;102134.16;5010799;28;20131;-79
2022/02/07 13:39:52;;;;;;;7.35;2.08;;;;;;;12.47;46.32;102153.31;5009510;28;20054;-79
2022/02/07 13:42:34;;;;;;;8.60;1.95;;;;;;;12.46;46.47;102157.00;5006851;28;20132;-79
2022/02/07 13:45:08;;;;;;;6.22;2.33;;;;;;;12.47;46.34;102161.50;5007544;28;20062;-79
2022/02/07 13:47:40;;;;;;;7.63;2.03;;;;;;;12.45;46.55;102157.06;5025119;28;20054;-78
2022/02/07 13:50:13;;;;;;;4.17;1.53;;;;;;;12.41;46.85;102156.38;5008622;28;20469;-80
2022/02/07 13:52:44;;;;;;;5.70;1.88;;;;;;;12.40;47.14;102161.91;5008169;28;20050;-80
2022/02/07 13:55:14;;;;;;;5.47;2.00;;;;;;;12.41;46.62;102159.09;5008481;28;20060;-81
2022/02/07 13:58:08;;;;;;;5.75;1.90;;;;;;;12.39;46.11;102158.31;5010599;28;20528;-80
2022/02/07 14:00:37;;;;;;;5.47;1.70;;;;;;;12.35;46.42;102170.34;5008194;28;20133;-78
2022/02/07 14:03:13;;;;;;;3.50;1.45;;;;;;;12.36;45.77;102163.91;5010617;28;20070;-79